createdAt,value
2017-08-08T00:00:22.850Z,7.90
2017-08-08T00:02:54.340Z,4.97
2017-08-08T00:05:25.325Z,4.40
2017-08-08T00:07:56.328Z,4.10
2017-08-08T00:10:27.729Z,9.80
2017-08-08T00:12:58.733Z,8.00
2017-08-08T00:15:29.719Z,4.57
2017-08-08T00:18:01.307Z,9.13
2017-08-08T00:20:32.276Z,5.83
2017-08-08T00:23:03.687Z,6.43
2017-08-08T00:25:34.718Z,4.47
2017-08-08T00:28:06.372Z,9.90
2017-08-08T00:30:37.864Z,7.23
2017-08-08T00:33:09.077Z,4.53
2017-08-08T00:35:40.315Z,11.67
2017-08-08T00:38:11.340Z,8.57
2017-08-08T00:40:42.451Z,9.03
2017-08-08T00:43:13.975Z,5.20
2017-08-08T00:45:45.109Z,5.17
2017-08-08T00:48:16.594Z,7.43
2017-08-08T00:50:47.603Z,4.40
2017-08-08T00:53:18.783Z,6.23
2017-08-08T00:55:50.144Z,6.77
2017-08-08T00:58:21.490Z,5.23
2017-08-08T01:00:52.536Z,8.60
2017-08-08T01:03:23.592Z,5.97
2017-08-08T01:05:54.841Z,5.10
2017-08-08T01:08:26.449Z,5.93
2017-08-08T01:10:57.455Z,5.60
2017-08-08T01:13:28.763Z,5.10
2017-08-08T01:16:00.099Z,5.80
2017-08-08T01:18:31.437Z,7.50
2017-08-08T01:21:04.975Z,18.00
2017-08-08T01:23:36.019Z,6.40
2017-08-08T01:26:07.128Z,6.50
2017-08-08T01:28:38.711Z,7.00
2017-08-08T01:31:09.842Z,7.50
2017-08-08T01:33:41.147Z,9.33
2017-08-08T01:36:12.267Z,5.67
2017-08-08T01:38:43.329Z,6.97
2017-08-08T01:41:14.659Z,9.30
2017-08-08T01:43:45.764Z,9.43
2017-08-08T01:46:16.891Z,5.93
2017-08-08T01:48:48.390Z,11.13
2017-08-08T01:51:19.865Z,6.73
2017-08-08T01:53:50.974Z,5.63
2017-08-08T01:56:22.167Z,10.77
2017-08-08T01:58:53.590Z,5.00
2017-08-08T02:01:24.779Z,6.23
2017-08-08T02:03:55.941Z,5.33
2017-08-08T02:06:27.354Z,5.87
2017-08-08T02:08:58.423Z,5.40
2017-08-08T02:11:29.546Z,6.60
2017-08-08T02:14:01.009Z,6.07
2017-08-08T02:16:32.048Z,6.50
2017-08-08T02:19:03.243Z,7.83
2017-08-08T02:21:34.285Z,4.60
2017-08-08T02:24:05.758Z,4.43
2017-08-08T02:26:37.326Z,10.00
2017-08-08T02:29:08.333Z,4.70
2017-08-08T02:31:39.563Z,5.50
2017-08-08T02:34:11.012Z,6.40
2017-08-08T02:36:42.030Z,8.13
2017-08-08T02:39:13.162Z,6.67
2017-08-08T02:41:45.577Z,7.20
2017-08-08T02:44:16.563Z,9.40
2017-08-08T02:46:47.824Z,4.63
2017-08-08T02:49:18.860Z,4.73
2017-08-08T02:51:49.851Z,5.37
2017-08-08T02:54:21.288Z,5.67
2017-08-08T02:56:52.287Z,4.73
2017-08-08T02:59:23.327Z,4.30
2017-08-08T03:01:54.727Z,5.20
2017-08-08T03:04:25.733Z,5.20
2017-08-08T03:06:56.772Z,5.20
2017-08-08T03:09:28.139Z,19.40
2017-08-08T03:11:59.126Z,5.13
2017-08-08T03:14:30.436Z,6.37
2017-08-08T03:17:01.973Z,5.30
2017-08-08T03:19:32.992Z,8.03
2017-08-08T03:22:05.185Z,4.67
2017-08-08T03:24:36.617Z,6.00
2017-08-08T03:27:07.646Z,12.60
2017-08-08T03:29:38.654Z,6.97
2017-08-08T03:32:10.068Z,5.80
2017-08-08T03:34:41.089Z,5.87
2017-08-08T03:37:12.391Z,6.60
2017-08-08T03:39:43.463Z,6.80
2017-08-08T03:42:14.512Z,5.63
2017-08-08T03:44:47.003Z,10.80
2017-08-08T03:47:18.063Z,8.83
2017-08-08T03:49:49.076Z,11.90
2017-08-08T03:52:20.429Z,8.60
2017-08-08T03:54:51.451Z,6.90
2017-08-08T03:57:22.444Z,8.87
2017-08-08T03:59:53.736Z,8.37
2017-08-08T04:02:24.748Z,6.60
2017-08-08T04:04:55.763Z,7.73
2017-08-08T04:07:27.071Z,10.23
2017-08-08T04:09:58.117Z,9.47
2017-08-08T04:12:29.151Z,6.50
2017-08-08T04:15:00.613Z,5.30
2017-08-08T04:17:31.642Z,5.80
2017-08-08T04:20:04.536Z,9.00
2017-08-08T04:22:35.872Z,15.77
2017-08-08T04:25:06.909Z,9.43
2017-08-08T04:27:37.910Z,10.73
2017-08-08T04:30:09.314Z,8.83
2017-08-08T04:32:40.474Z,8.93
2017-08-08T04:35:11.525Z,12.57
2017-08-08T04:37:42.932Z,9.57
2017-08-08T04:40:13.943Z,11.40
2017-08-08T04:42:44.970Z,7.50
2017-08-08T04:45:16.025Z,13.07
2017-08-08T04:47:47.057Z,12.70
2017-08-08T04:50:18.382Z,7.13
2017-08-08T04:52:49.397Z,10.73
2017-08-08T04:55:20.460Z,18.60
2017-08-08T04:57:51.899Z,18.47
2017-08-08T05:00:22.923Z,14.90
2017-08-08T05:02:53.960Z,10.63
2017-08-08T05:05:25.428Z,12.90
2017-08-08T05:07:56.971Z,8.77
2017-08-08T05:10:28.082Z,8.50
2017-08-08T05:12:59.515Z,15.37
2017-08-08T05:15:30.588Z,13.83
2017-08-08T05:18:02.423Z,9.90
2017-08-08T05:20:33.483Z,10.93
2017-08-08T05:24:07.226Z,17.17
2017-08-08T05:26:38.262Z,10.00
2017-08-08T05:29:09.625Z,9.20
2017-08-08T05:31:41.164Z,11.37
2017-08-08T05:34:12.277Z,8.50
2017-08-08T05:36:43.647Z,7.83
2017-08-08T05:39:14.668Z,11.73
2017-08-08T05:41:45.720Z,14.90
2017-08-08T05:44:17.202Z,9.97
2017-08-08T05:46:48.267Z,15.13
2017-08-08T05:49:19.362Z,21.60
2017-08-08T05:51:50.494Z,12.20
2017-08-08T05:54:21.584Z,15.00
2017-08-08T05:56:53.195Z,9.83
2017-08-08T05:59:24.334Z,14.10
2017-08-08T06:01:55.928Z,11.13
2017-08-08T06:04:26.941Z,11.97
2017-08-08T06:06:57.996Z,9.73
2017-08-08T06:09:29.416Z,18.07
2017-08-08T06:12:00.469Z,10.13
2017-08-08T06:14:31.508Z,16.13
2017-08-08T06:17:02.553Z,8.83
2017-08-08T06:19:33.565Z,16.80
2017-08-08T06:22:05.562Z,12.87
2017-08-08T06:24:36.599Z,20.07
2017-08-08T06:27:07.873Z,11.90
2017-08-08T06:29:38.903Z,13.07
2017-08-08T06:32:09.997Z,7.80
2017-08-08T06:34:41.484Z,15.80
2017-08-08T06:37:12.479Z,9.30
2017-08-08T06:39:43.516Z,12.23
2017-08-08T06:42:15.056Z,18.83
2017-08-08T06:44:46.162Z,7.30
2017-08-08T06:47:17.171Z,7.97
2017-08-08T06:49:48.473Z,7.27
2017-08-08T06:52:19.479Z,12.87
2017-08-08T06:54:50.859Z,12.10
2017-08-08T06:57:21.869Z,16.00
2017-08-08T06:59:52.866Z,13.97
2017-08-08T07:05:06.263Z,24.53
2017-08-08T07:07:37.330Z,26.17
2017-08-08T07:10:08.735Z,15.00
2017-08-08T07:12:39.788Z,11.67
2017-08-08T07:15:10.830Z,25.97
2017-08-08T07:17:42.397Z,30.60
2017-08-08T07:20:13.604Z,24.10
2017-08-08T07:22:44.895Z,26.30
2017-08-08T07:25:15.954Z,25.37
2017-08-08T07:27:47.044Z,24.73
2017-08-08T07:30:18.504Z,12.93
2017-08-08T07:32:49.624Z,22.77
2017-08-08T07:35:20.668Z,10.90
2017-08-08T07:37:52.171Z,12.73
2017-08-08T07:40:23.219Z,13.83
2017-08-08T07:42:54.258Z,9.10
2017-08-08T07:45:25.310Z,17.03
2017-08-08T07:47:56.760Z,14.63
2017-08-08T07:50:27.775Z,19.47
2017-08-08T07:52:58.799Z,12.73
2017-08-08T07:55:30.323Z,20.80
2017-08-08T07:58:01.332Z,12.67
2017-08-08T08:00:32.402Z,22.47
2017-08-08T08:03:03.431Z,10.10
2017-08-08T08:05:34.525Z,10.80
2017-08-08T08:08:06.371Z,17.10
2017-08-08T08:10:37.499Z,15.43
2017-08-08T08:13:08.803Z,14.90
2017-08-08T08:15:39.858Z,15.70
2017-08-08T08:18:10.852Z,13.73
2017-08-08T08:20:42.210Z,11.33
2017-08-08T08:23:13.231Z,16.53
2017-08-08T08:25:44.248Z,16.90
2017-08-08T08:28:15.305Z,7.40
2017-08-08T08:30:46.331Z,15.30
2017-08-08T08:33:17.780Z,9.80
2017-08-08T08:35:48.912Z,4.97
2017-08-08T08:38:20.182Z,5.83
2017-08-08T08:40:51.215Z,4.80
2017-08-08T08:43:22.222Z,5.30
2017-08-08T08:45:53.675Z,5.73
2017-08-08T08:48:24.676Z,4.87
2017-08-08T08:50:55.818Z,9.20
2017-08-08T08:53:27.292Z,4.93
2017-08-08T08:55:58.348Z,5.00
2017-08-08T08:58:29.370Z,5.27
2017-08-08T09:01:00.748Z,6.80
2017-08-08T09:06:28.339Z,10.20
2017-08-08T09:08:59.448Z,4.47
2017-08-08T09:11:30.537Z,8.93
2017-08-08T09:14:01.885Z,5.20
2017-08-08T09:16:51.959Z,12.60
2017-08-08T09:19:52.681Z,5.63
2017-08-08T09:22:50.878Z,5.53
2017-08-08T09:28:17.594Z,10.13
2017-08-08T09:30:48.628Z,8.20
2017-08-08T09:33:19.988Z,6.60
2017-08-08T09:35:51.100Z,10.00
2017-08-08T09:38:22.330Z,9.17
2017-08-08T09:40:54.104Z,5.73
2017-08-08T09:43:25.296Z,4.30
2017-08-08T09:45:56.852Z,6.00
2017-08-08T09:48:27.991Z,6.60
2017-08-08T09:50:59.776Z,9.20
2017-08-08T09:53:32.132Z,8.80
2017-08-08T09:56:04.301Z,9.83
2017-08-08T09:58:35.374Z,5.23
2017-08-08T10:01:06.924Z,5.57
2017-08-08T10:03:37.986Z,6.90
2017-08-08T10:06:09.467Z,9.50
2017-08-08T10:08:40.861Z,7.80
2017-08-08T10:11:12.786Z,12.83
2017-08-08T10:13:43.889Z,9.97
2017-08-08T10:16:19.298Z,5.83
2017-08-08T10:18:50.416Z,4.87
2017-08-08T10:21:21.793Z,6.37
2017-08-08T10:23:52.876Z,7.63
2017-08-08T10:26:23.991Z,10.80
2017-08-08T10:28:55.288Z,6.10
2017-08-08T10:31:26.339Z,5.00
2017-08-08T10:33:57.711Z,13.47
2017-08-08T10:36:29.073Z,5.33
2017-08-08T10:39:00.885Z,7.33
2017-08-08T10:41:32.769Z,8.30
2017-08-08T10:44:05.284Z,11.50
2017-08-08T10:46:36.838Z,4.60
2017-08-08T10:49:08.547Z,4.40
2017-08-08T10:51:40.119Z,4.70
2017-08-08T10:54:13.243Z,8.10
2017-08-08T10:56:44.437Z,4.73
2017-08-08T10:59:15.783Z,3.77
2017-08-08T11:01:46.865Z,5.43
2017-08-08T11:04:18.345Z,3.70
2017-08-08T11:06:50.094Z,4.10
2017-08-08T11:09:21.175Z,5.03
2017-08-08T11:11:52.326Z,5.33
2017-08-08T11:14:24.863Z,3.37
2017-08-08T11:16:55.911Z,5.00
2017-08-08T11:19:27.247Z,3.13
2017-08-08T11:21:58.686Z,3.60
2017-08-08T11:24:31.201Z,3.83
2017-08-08T11:27:02.627Z,3.50
2017-08-08T11:29:34.075Z,6.20
2017-08-08T11:32:09.646Z,13.37
2017-08-08T11:34:41.142Z,7.10
2017-08-08T11:37:12.248Z,4.93
2017-08-08T11:39:43.419Z,7.80
2017-08-08T11:42:17.571Z,3.53
2017-08-08T11:44:49.661Z,3.90
2017-08-08T11:47:21.042Z,5.67
2017-08-08T11:49:52.180Z,5.50
2017-08-08T11:52:23.335Z,5.70
2017-08-08T11:54:54.959Z,4.63
2017-08-08T11:57:25.995Z,3.33
2017-08-08T11:59:57.128Z,3.23
2017-08-08T12:02:28.782Z,13.43
2017-08-08T12:04:59.939Z,6.50
2017-08-08T12:07:31.124Z,6.37
2017-08-08T12:10:05.291Z,3.00
2017-08-08T12:12:38.810Z,3.47
2017-08-08T12:15:10.388Z,3.33
2017-08-08T12:17:41.604Z,5.77
2017-08-08T12:20:13.922Z,5.60
2017-08-08T12:22:46.314Z,3.00
2017-08-08T12:25:17.617Z,4.97
2017-08-08T12:27:49.017Z,2.90
2017-08-08T12:30:20.940Z,4.60
2017-08-08T12:32:52.260Z,2.77
2017-08-08T12:35:23.583Z,2.90
2017-08-08T12:37:54.743Z,2.77
2017-08-08T12:40:26.669Z,3.70
2017-08-08T12:42:58.592Z,4.03
2017-08-08T12:45:31.946Z,3.77
2017-08-08T12:48:04.917Z,2.57
2017-08-08T12:50:36.020Z,3.13
2017-08-08T12:53:07.222Z,3.40
2017-08-08T12:55:40.627Z,3.30
2017-08-08T12:58:12.251Z,3.00
2017-08-08T13:00:43.406Z,2.97
2017-08-08T13:03:14.531Z,6.63
2017-08-08T13:05:45.720Z,3.80
2017-08-08T13:08:19.277Z,3.77
2017-08-08T13:10:50.448Z,2.30
2017-08-08T13:13:21.635Z,3.37
2017-08-08T13:15:54.317Z,5.23
2017-08-08T13:18:25.575Z,2.43
2017-08-08T13:20:57.145Z,3.40
2017-08-08T13:23:32.045Z,4.70
2017-08-08T13:26:04.287Z,2.70
2017-08-08T13:28:35.578Z,3.43
2017-08-08T13:31:10.485Z,5.03
2017-08-08T13:33:47.663Z,3.30
2017-08-08T13:36:22.538Z,6.80
2017-08-08T13:38:55.671Z,6.33
2017-08-08T13:41:29.673Z,3.10
2017-08-08T13:44:06.573Z,7.97
2017-08-08T13:46:41.672Z,22.50
2017-08-08T13:49:15.548Z,2.83
2017-08-08T13:52:11.513Z,2.77
2017-08-08T14:00:36.877Z,8.13
2017-08-08T14:03:15.057Z,2.50
2017-08-08T14:05:53.650Z,2.50
2017-08-08T14:08:28.576Z,2.70
2017-08-08T14:11:14.447Z,1.80
2017-08-08T18:47:16.672Z,3.10
2017-08-08T18:49:47.881Z,1.30
2017-08-08T18:52:19.464Z,1.33
2017-08-08T18:54:50.785Z,1.23
2017-08-08T18:57:22.342Z,3.70
2017-08-08T18:59:53.571Z,3.17
2017-08-08T19:02:24.905Z,2.27
2017-08-08T19:04:56.648Z,2.10
2017-08-08T19:07:27.778Z,2.43
2017-08-08T19:09:58.934Z,1.57
2017-08-08T19:12:30.578Z,1.80
2017-08-08T19:15:01.787Z,2.10
2017-08-08T19:17:33.198Z,1.77
2017-08-08T19:20:05.193Z,1.63
2017-08-08T19:22:36.315Z,3.23
2017-08-08T19:25:07.676Z,1.70
2017-08-08T19:27:38.755Z,1.70
2017-08-08T19:30:09.860Z,6.33
2017-08-08T19:32:41.299Z,3.20
2017-08-08T19:35:12.434Z,3.00
2017-08-08T19:37:43.837Z,3.80
2017-08-08T19:40:15.049Z,4.00
2017-08-08T19:42:46.397Z,4.00
2017-08-08T19:45:17.497Z,4.03
2017-08-08T19:47:48.698Z,3.27
2017-08-08T19:50:20.214Z,2.50
2017-08-08T19:52:51.399Z,4.27
2017-08-08T19:55:22.689Z,8.47
2017-08-08T20:00:34.449Z,6.00
2017-08-08T20:03:06.011Z,2.43
2017-08-08T20:05:37.146Z,3.33
2017-08-08T20:08:08.513Z,3.50
2017-08-08T20:10:39.603Z,2.40
2017-08-08T20:13:10.630Z,2.90
2017-08-08T20:15:41.772Z,9.00
2017-08-08T20:18:12.893Z,2.50
2017-08-08T20:20:44.255Z,2.23
2017-08-08T20:23:15.310Z,6.87
2017-08-08T20:25:46.386Z,5.80
2017-08-08T20:28:18.760Z,4.37
2017-08-08T20:30:49.807Z,3.70
2017-08-08T20:33:20.885Z,2.73
2017-08-08T20:35:52.197Z,11.03
2017-08-08T20:38:23.265Z,2.87
2017-08-08T20:40:54.308Z,1.83
2017-08-08T20:43:25.679Z,2.20
2017-08-08T20:45:56.743Z,3.10
2017-08-08T20:48:27.808Z,1.70
2017-08-08T20:50:59.155Z,4.27
2017-08-08T20:53:30.220Z,4.30
2017-08-08T20:56:02.149Z,7.73
2017-08-08T20:58:33.174Z,1.80
2017-08-08T21:04:00.296Z,2.00
2017-08-08T21:06:31.347Z,28.63
2017-08-08T21:09:02.804Z,3.27
2017-08-08T21:11:33.902Z,2.70
2017-08-08T21:14:06.115Z,4.20
2017-08-08T21:16:37.315Z,1.90
2017-08-08T21:19:08.390Z,1.70
2017-08-08T21:21:40.040Z,3.07
2017-08-08T21:24:11.281Z,1.70
2017-08-08T21:26:42.747Z,1.10
2017-08-08T21:29:14.329Z,1.43
2017-08-08T21:31:45.388Z,1.50
2017-08-08T21:34:16.743Z,4.10
2017-08-08T21:36:47.749Z,0.90
2017-08-08T21:39:18.796Z,1.00
2017-08-08T21:41:50.332Z,0.90
2017-08-08T21:44:21.407Z,0.90
2017-08-08T21:46:52.464Z,1.40
2017-08-08T21:49:23.983Z,0.90
2017-08-08T21:51:55.020Z,2.97
2017-08-08T21:54:34.964Z,0.80
2017-08-08T22:00:00.907Z,3.57
2017-08-08T22:05:43.453Z,1.20
2017-08-08T22:08:16.224Z,1.20
2017-08-08T22:10:52.556Z,1.50
2017-08-08T22:16:20.928Z,1.00
2017-08-08T22:18:52.040Z,1.03
2017-08-08T22:30:15.335Z,2.50
2017-08-08T22:32:47.285Z,1.73
2017-08-08T22:35:23.567Z,1.60
2017-08-08T22:37:56.534Z,1.90
2017-08-08T22:40:35.013Z,2.20
2017-08-08T22:43:11.859Z,2.33
2017-08-08T22:45:54.263Z,2.37
2017-08-08T22:48:36.122Z,1.60
2017-08-08T22:51:18.523Z,2.20
2017-08-08T22:53:52.622Z,2.40
2017-08-08T22:56:26.660Z,1.77
2017-08-08T22:58:58.594Z,1.57
2017-08-08T23:01:35.213Z,6.43
2017-08-08T23:04:25.115Z,3.57
2017-08-08T23:07:38.796Z,2.30
2017-08-08T23:13:17.187Z,4.93
2017-08-08T23:15:48.298Z,1.90
2017-08-08T23:18:20.734Z,3.40
2017-08-08T23:20:51.931Z,7.10
2017-08-08T23:23:22.972Z,2.60
2017-08-08T23:25:54.488Z,1.93
2017-08-08T23:28:25.517Z,5.83
2017-08-08T23:30:57.280Z,3.60
2017-08-08T23:36:09.465Z,9.30
2017-08-08T23:38:40.560Z,3.70
2017-08-08T23:41:11.631Z,1.53
2017-08-08T23:43:42.664Z,1.77
2017-08-08T23:46:14.477Z,6.00
2017-08-08T23:48:45.874Z,1.57
2017-08-08T23:51:17.483Z,5.13
2017-08-08T23:53:48.844Z,11.83
2017-08-08T23:56:20.002Z,1.80
2017-08-08T23:58:51.077Z,3.17
